createdAt,value
2018-10-21T00:01:04.032Z,97829.81
2018-10-21T00:03:32.923Z,97829.80
2018-10-21T00:06:01.801Z,97833.25
2018-10-21T00:08:30.788Z,97822.45
2018-10-21T00:10:59.675Z,97823.41
2018-10-21T00:13:28.555Z,97814.78
2018-10-21T00:15:57.456Z,97818.34
2018-10-21T00:18:26.343Z,97825.34
2018-10-21T00:20:55.221Z,97826.94
2018-10-21T00:23:24.164Z,97835.02
2018-10-21T00:25:53.092Z,97842.05
2018-10-21T00:28:21.959Z,97833.55
2018-10-21T00:30:50.838Z,97831.35
2018-10-21T00:33:19.858Z,97834.52
2018-10-21T00:35:48.787Z,97830.77
2018-10-21T00:38:17.676Z,97834.52
2018-10-21T00:40:46.571Z,97832.95
2018-10-21T00:43:15.435Z,97833.94
2018-10-21T00:45:44.299Z,97829.30
2018-10-21T00:48:13.185Z,97830.90
2018-10-21T00:50:42.096Z,97820.11
2018-10-21T00:53:10.997Z,97819.02
2018-10-21T00:55:39.885Z,97818.25
2018-10-21T00:58:08.763Z,97818.92
2018-10-21T01:00:37.652Z,97807.75
2018-10-21T01:03:06.835Z,97806.63
2018-10-21T01:05:35.704Z,97800.66
2018-10-21T01:08:04.592Z,97791.45
2018-10-21T01:10:33.468Z,97791.48
2018-10-21T01:13:02.357Z,97800.62
2018-10-21T01:15:31.245Z,97799.48
2018-10-21T01:18:00.131Z,97799.34
2018-10-21T01:20:29.103Z,97802.50
2018-10-21T01:22:57.946Z,97788.95
2018-10-21T01:25:26.845Z,97794.45
2018-10-21T01:27:55.657Z,97793.07
2018-10-21T01:30:24.501Z,97798.20
2018-10-21T01:32:53.370Z,97795.65
2018-10-21T01:35:22.213Z,97794.08
2018-10-21T01:37:51.036Z,97790.77
2018-10-21T01:40:26.977Z,97784.45
2018-10-21T01:42:55.901Z,97786.23
2018-10-21T01:45:25.353Z,97784.45
2018-10-21T01:47:54.327Z,97787.27
2018-10-21T01:50:23.802Z,97789.81
2018-10-21T01:52:52.706Z,97791.58
2018-10-21T01:55:21.585Z,97791.87
2018-10-21T01:57:50.413Z,97788.45
2018-10-21T02:00:19.341Z,97785.39
2018-10-21T02:02:48.145Z,97785.39
2018-10-21T02:05:16.994Z,97789.05
2018-10-21T02:07:45.832Z,97790.33
2018-10-21T02:10:14.670Z,97785.92
2018-10-21T02:12:43.485Z,97787.90
2018-10-21T02:15:13.104Z,97791.13
2018-10-21T02:17:42.115Z,97785.05
2018-10-21T02:20:12.117Z,97779.08
2018-10-21T02:22:41.719Z,97780.47
2018-10-21T02:25:10.721Z,97777.63
2018-10-21T02:27:40.330Z,97782.06
2018-10-21T02:30:13.183Z,97772.84
2018-10-21T02:32:42.410Z,97777.33
2018-10-21T02:35:12.107Z,97770.88
2018-10-21T02:37:41.325Z,97765.29
2018-10-21T02:41:28.346Z,97770.22
2018-10-21T02:43:57.484Z,97768.55
2018-10-21T02:46:26.590Z,97768.25
2018-10-21T02:48:56.645Z,97768.27
2018-10-21T02:51:25.999Z,97763.75
2018-10-21T02:53:55.228Z,97768.56
2018-10-21T02:56:24.293Z,97764.23
2018-10-21T02:58:53.537Z,97752.97
2018-10-21T03:01:22.775Z,97754.02
2018-10-21T03:03:51.917Z,97753.34
2018-10-21T03:06:21.217Z,97758.64
2018-10-21T03:08:50.544Z,97759.91
2018-10-21T03:11:19.670Z,97761.30
2018-10-21T03:13:48.882Z,97757.69
2018-10-21T03:16:17.963Z,97753.97
2018-10-21T03:18:47.273Z,97765.23
2018-10-21T03:21:16.523Z,97765.33
2018-10-21T03:23:46.118Z,97761.22
2018-10-21T03:26:15.263Z,97757.80
2018-10-21T03:28:44.546Z,97765.92
2018-10-21T03:31:13.814Z,97771.72
2018-10-21T03:33:43.346Z,97771.90
2018-10-21T03:36:12.301Z,97778.77
2018-10-21T03:38:41.610Z,97782.99
2018-10-21T03:41:10.857Z,97784.05
2018-10-21T03:43:46.349Z,97790.24
2018-10-21T03:46:16.282Z,97791.01
2018-10-21T03:48:45.469Z,97790.05
2018-10-21T03:51:14.984Z,97788.06
2018-10-21T03:53:44.218Z,97788.44
2018-10-21T03:56:13.565Z,97795.98
2018-10-21T03:58:42.841Z,97799.31
2018-10-21T04:01:12.188Z,97802.32
2018-10-21T04:03:41.426Z,97798.78
2018-10-21T04:06:10.663Z,97800.25
2018-10-21T04:08:39.966Z,97802.31
2018-10-21T04:11:09.166Z,97796.25
2018-10-21T04:13:38.486Z,97794.88
2018-10-21T04:16:07.810Z,97783.48
2018-10-21T04:18:37.054Z,97786.32
2018-10-21T04:21:06.321Z,97787.31
2018-10-21T04:23:35.145Z,97787.34
2018-10-21T04:26:03.985Z,97789.06
2018-10-21T04:28:32.785Z,97789.20
2018-10-21T04:31:01.596Z,97784.44
2018-10-21T04:33:45.695Z,97786.47
2018-10-21T04:36:18.425Z,97789.23
2018-10-21T04:40:03.179Z,97793.81
2018-10-21T04:42:32.037Z,97794.67
2018-10-21T04:45:01.419Z,97783.06
2018-10-21T04:47:30.577Z,97786.67
2018-10-21T04:49:59.421Z,97790.73
2018-10-21T04:52:29.316Z,97780.79
2018-10-21T04:55:03.177Z,97781.36
2018-10-21T04:57:32.065Z,97777.44
2018-10-21T05:00:01.132Z,97770.23
2018-10-21T05:02:30.925Z,97769.09
2018-10-21T05:05:00.000Z,97776.86
2018-10-21T05:07:28.853Z,97765.89
2018-10-21T05:09:57.659Z,97768.20
2018-10-21T05:12:26.529Z,97752.75
2018-10-21T05:14:55.345Z,97751.44
2018-10-21T05:17:24.165Z,97746.05
2018-10-21T05:19:53.002Z,97757.94
2018-10-21T05:22:21.825Z,97757.73
2018-10-21T05:24:50.726Z,97745.66
2018-10-21T05:27:19.538Z,97745.37
2018-10-21T05:29:48.355Z,97743.14
2018-10-21T05:32:17.185Z,97750.46
2018-10-21T05:34:52.406Z,97754.30
2018-10-21T05:37:21.229Z,97761.34
2018-10-21T05:39:50.030Z,97757.05
2018-10-21T05:42:18.831Z,97755.71
2018-10-21T05:44:47.642Z,97762.95
2018-10-21T05:47:16.516Z,97757.39
2018-10-21T05:49:45.294Z,97756.05
2018-10-21T05:52:14.130Z,97753.05
2018-10-21T05:54:43.862Z,97754.52
2018-10-21T05:57:12.682Z,97750.17
2018-10-21T05:59:41.493Z,97752.79
2018-10-21T06:02:10.345Z,97758.27
2018-10-21T06:04:39.166Z,97765.75
2018-10-21T06:07:08.119Z,97771.04
2018-10-21T06:09:37.258Z,97773.98
2018-10-21T06:12:06.443Z,97782.09
2018-10-21T06:14:35.702Z,97792.61
2018-10-21T06:17:10.872Z,97787.09
2018-10-21T06:19:43.170Z,97793.43
2018-10-21T06:22:12.562Z,97797.57
2018-10-21T06:24:41.750Z,97794.77
2018-10-21T06:27:10.959Z,97785.62
2018-10-21T06:29:40.162Z,97795.23
2018-10-21T06:32:09.341Z,97793.38
2018-10-21T06:34:38.539Z,97791.60
2018-10-21T06:37:07.803Z,97798.14
2018-10-21T06:39:36.988Z,97796.30
2018-10-21T06:42:06.377Z,97789.18
2018-10-21T06:44:35.543Z,97792.23
2018-10-21T06:47:04.784Z,97788.91
2018-10-21T06:49:33.985Z,97794.07
2018-10-21T06:52:03.222Z,97790.47
2018-10-21T06:54:32.442Z,97795.43
2018-10-21T06:57:01.740Z,97799.16
2018-10-21T06:59:30.485Z,97806.60
2018-10-21T07:01:59.294Z,97805.87
2018-10-21T07:04:28.152Z,97802.22
2018-10-21T07:06:56.945Z,97804.64
2018-10-21T07:09:25.754Z,97806.07
2018-10-21T07:11:54.564Z,97805.14
2018-10-21T07:14:23.367Z,97811.95
2018-10-21T07:16:52.292Z,97810.53
2018-10-21T07:19:21.013Z,97811.22
2018-10-21T07:21:49.822Z,97811.72
2018-10-21T07:24:18.630Z,97807.05
2018-10-21T07:26:47.474Z,97810.41
2018-10-21T07:29:16.331Z,97814.44
2018-10-21T07:31:45.141Z,97822.42
2018-10-21T07:34:14.035Z,97826.97
2018-10-21T07:36:42.801Z,97825.75
2018-10-21T07:39:12.109Z,97822.70
2018-10-21T07:41:40.917Z,97831.83
2018-10-21T07:44:09.710Z,97829.29
2018-10-21T07:46:38.841Z,97826.33
2018-10-21T07:49:07.685Z,97828.41
2018-10-21T07:51:36.481Z,97824.45
2018-10-21T07:54:05.333Z,97823.27
2018-10-21T07:56:34.154Z,97827.39
2018-10-21T07:59:02.958Z,97826.97
2018-10-21T08:01:31.801Z,97823.89
2018-10-21T08:04:00.641Z,97827.79
2018-10-21T08:06:40.515Z,97839.56
2018-10-21T08:09:11.078Z,97836.48
2018-10-21T08:11:39.932Z,97845.55
2018-10-21T08:14:08.778Z,97833.02
2018-10-21T08:16:37.589Z,97824.67
2018-10-21T08:19:06.629Z,97826.52
2018-10-21T08:21:35.441Z,97824.25
2018-10-21T08:24:04.266Z,97819.86
2018-10-21T08:26:33.102Z,97824.70
2018-10-21T08:29:01.925Z,97823.75
2018-10-21T08:31:30.745Z,97821.44
2018-10-21T08:33:59.618Z,97818.30
2018-10-21T08:36:28.398Z,97812.78
2018-10-21T08:38:57.213Z,97812.35
2018-10-21T08:41:26.022Z,97810.57
2018-10-21T08:43:54.840Z,97817.02
2018-10-21T08:46:23.851Z,97805.73
2018-10-21T08:48:52.541Z,97816.81
2018-10-21T08:51:21.355Z,97822.81
2018-10-21T08:53:50.194Z,97817.33
2018-10-21T08:56:18.987Z,97816.29
2018-10-21T08:58:47.816Z,97808.31
2018-10-21T09:01:16.620Z,97811.60
2018-10-21T09:03:45.453Z,97814.09
2018-10-21T09:06:14.274Z,97806.34
2018-10-21T09:08:43.062Z,97814.67
2018-10-21T09:11:11.898Z,97799.61
2018-10-21T09:13:40.726Z,97800.00
2018-10-21T09:16:09.608Z,97799.30
2018-10-21T09:18:38.397Z,97798.63
2018-10-21T09:21:07.201Z,97795.88
2018-10-21T09:23:36.048Z,97793.55
2018-10-21T09:26:04.862Z,97798.99
2018-10-21T09:28:33.720Z,97786.83
2018-10-21T09:31:02.643Z,97793.24
2018-10-21T09:33:31.551Z,97792.02
2018-10-21T09:36:00.472Z,97788.15
2018-10-21T09:38:29.298Z,97786.58
2018-10-21T09:40:58.256Z,97780.89
2018-10-21T09:43:27.168Z,97786.37
2018-10-21T09:45:56.086Z,97778.06
2018-10-21T09:48:24.986Z,97785.31
2018-10-21T09:50:53.818Z,97779.86
2018-10-21T09:53:22.646Z,97783.17
2018-10-21T09:55:51.461Z,97779.56
2018-10-21T09:58:20.399Z,97777.98
2018-10-21T10:00:54.451Z,97771.86
2018-10-21T10:03:23.371Z,97769.38
2018-10-21T10:05:52.266Z,97761.73
2018-10-21T10:08:21.090Z,97764.02
2018-10-21T10:10:49.925Z,97759.22
2018-10-21T10:13:18.808Z,97756.23
2018-10-21T10:15:47.586Z,97758.52
2018-10-21T10:18:16.426Z,97758.47
2018-10-21T10:20:45.228Z,97753.61
2018-10-21T10:23:14.105Z,97752.81
2018-10-21T10:25:42.940Z,97747.35
2018-10-21T10:28:11.796Z,97746.72
2018-10-21T10:30:40.650Z,97744.22
2018-10-21T10:33:09.438Z,97738.66
2018-10-21T10:35:38.251Z,97744.92
2018-10-21T10:38:07.062Z,97741.93
2018-10-21T10:40:35.910Z,97727.38
2018-10-21T10:43:04.777Z,97732.36
2018-10-21T10:45:33.554Z,97728.76
2018-10-21T10:48:02.377Z,97721.04
2018-10-21T10:50:31.195Z,97717.61
2018-10-21T10:53:00.052Z,97721.98
2018-10-21T10:55:33.991Z,97730.44
2018-10-21T10:58:02.817Z,97722.65
2018-10-21T11:00:31.654Z,97725.08
2018-10-21T11:03:00.450Z,97719.61
2018-10-21T11:05:29.306Z,97716.27
2018-10-21T11:07:58.169Z,97712.98
2018-10-21T11:10:26.994Z,97717.12
2018-10-21T11:12:55.845Z,97720.33
2018-10-21T11:15:24.730Z,97723.39
2018-10-21T11:17:53.525Z,97719.55
2018-10-21T11:20:22.352Z,97713.76
2018-10-21T11:22:51.248Z,97700.61
2018-10-21T11:25:20.057Z,97699.78
2018-10-21T11:27:48.874Z,97707.14
2018-10-21T11:30:17.697Z,97703.55
2018-10-21T11:32:46.516Z,97698.45
2018-10-21T11:35:15.394Z,97689.59
2018-10-21T11:37:44.308Z,97696.55
2018-10-21T11:40:13.152Z,97686.17
2018-10-21T11:42:41.915Z,97681.33
2018-10-21T11:45:10.786Z,97680.52
2018-10-21T11:47:39.629Z,97683.98
2018-10-21T11:50:08.537Z,97687.04
2018-10-21T11:52:37.503Z,97681.98
2018-10-21T11:55:07.490Z,97680.30
2018-10-21T11:57:36.297Z,97680.34
2018-10-21T12:00:05.549Z,97686.57
2018-10-21T12:02:34.358Z,97674.99
2018-10-21T12:05:03.174Z,97668.59
2018-10-21T12:07:32.013Z,97670.41
2018-10-21T12:10:00.839Z,97670.02
2018-10-21T12:12:29.665Z,97667.59
2018-10-21T12:14:58.477Z,97662.15
2018-10-21T12:17:33.854Z,97660.51
2018-10-21T12:20:02.784Z,97663.78
2018-10-21T12:22:31.545Z,97664.30
2018-10-21T12:25:00.430Z,97664.99
2018-10-21T12:27:29.193Z,97663.28
2018-10-21T12:29:58.002Z,97654.54
2018-10-21T12:32:26.815Z,97656.16
2018-10-21T12:34:55.629Z,97652.33
2018-10-21T12:37:24.593Z,97654.23
2018-10-21T12:39:53.386Z,97647.45
2018-10-21T12:42:22.212Z,97637.88
2018-10-21T12:44:51.005Z,97643.28
2018-10-21T12:47:19.826Z,97645.90
2018-10-21T12:49:48.625Z,97638.75
2018-10-21T12:52:17.515Z,97637.70
2018-10-21T12:54:46.269Z,97642.88
2018-10-21T12:57:15.077Z,97637.24
2018-10-21T12:59:43.901Z,97635.79
2018-10-21T13:02:12.772Z,97633.86
2018-10-21T13:04:41.597Z,97631.05
2018-10-21T13:07:10.450Z,97626.45
2018-10-21T13:09:39.301Z,97632.02
2018-10-21T13:12:08.115Z,97630.95
2018-10-21T13:14:36.981Z,97632.78
2018-10-21T13:17:05.955Z,97633.91
2018-10-21T13:19:34.767Z,97629.41
2018-10-21T13:22:03.647Z,97633.11
2018-10-21T13:24:32.481Z,97632.33
2018-10-21T13:27:01.300Z,97617.83
2018-10-21T13:29:30.114Z,97625.54
2018-10-21T13:31:58.906Z,97623.86
2018-10-21T13:34:27.740Z,97623.23
2018-10-21T13:36:56.608Z,97626.11
2018-10-21T13:39:25.565Z,97615.30
2018-10-21T13:41:54.387Z,97620.47
2018-10-21T13:44:23.224Z,97620.56
2018-10-21T13:46:52.034Z,97617.47
2018-10-21T13:49:20.830Z,97616.94
2018-10-21T13:51:49.724Z,97613.72
2018-10-21T13:54:18.478Z,97607.75
2018-10-21T13:56:47.290Z,97612.72
2018-10-21T13:59:16.133Z,97618.31
2018-10-21T14:01:44.916Z,97610.72
2018-10-21T14:04:13.775Z,97618.51
2018-10-21T14:06:42.596Z,97613.13
2018-10-21T14:09:13.199Z,97613.50
2018-10-21T14:11:42.087Z,97607.48
2018-10-21T14:14:11.896Z,97608.30
2018-10-21T14:16:41.144Z,97607.93
2018-10-21T14:19:10.292Z,97611.38
2018-10-21T14:21:39.290Z,97612.16
2018-10-21T14:24:08.136Z,97610.94
2018-10-21T14:26:37.036Z,97607.50
2018-10-21T14:29:05.850Z,97609.13
2018-10-21T14:31:34.662Z,97602.27
2018-10-21T14:34:03.466Z,97599.69
2018-10-21T14:36:32.310Z,97601.66
2018-10-21T14:39:01.149Z,97597.84
2018-10-21T14:41:29.953Z,97601.46
2018-10-21T14:43:58.775Z,97604.42
2018-10-21T14:46:27.645Z,97609.09
2018-10-21T14:48:56.453Z,97598.41
2018-10-21T14:51:25.399Z,97591.63
2018-10-21T14:53:54.200Z,97598.39
2018-10-21T14:56:23.693Z,97600.66
2018-10-21T14:58:53.267Z,97595.85
2018-10-21T15:01:22.091Z,97604.80
2018-10-21T15:03:51.014Z,97594.58
2018-10-21T15:06:19.869Z,97593.81
2018-10-21T15:08:48.710Z,97593.92
2018-10-21T15:11:17.810Z,97588.50
2018-10-21T15:13:46.848Z,97596.30
2018-10-21T15:16:15.767Z,97591.19
2018-10-21T15:18:44.590Z,97588.61
2018-10-21T15:21:13.406Z,97586.41
2018-10-21T15:23:42.234Z,97589.02
2018-10-21T15:26:11.143Z,97583.65
2018-10-21T15:28:39.980Z,97588.71
2018-10-21T15:31:08.818Z,97586.80
2018-10-21T15:33:37.694Z,97583.55
2018-10-21T15:36:06.656Z,97579.54
2018-10-21T15:38:35.527Z,97586.64
2018-10-21T15:41:04.359Z,97577.97
2018-10-21T15:43:33.303Z,97578.50
2018-10-21T15:46:02.196Z,97576.66
2018-10-21T15:48:31.343Z,97574.70
2018-10-21T15:51:00.246Z,97570.34
2018-10-21T15:53:29.110Z,97570.35
2018-10-21T15:55:58.034Z,97577.59
2018-10-21T15:58:26.842Z,97578.23
2018-10-21T16:00:55.725Z,97575.95
2018-10-21T16:03:24.702Z,97578.06
2018-10-21T16:05:53.762Z,97584.80
2018-10-21T16:08:22.693Z,97583.77
2018-10-21T16:10:51.515Z,97582.95
2018-10-21T16:13:20.393Z,97581.34
2018-10-21T16:15:49.624Z,97581.36
2018-10-21T16:18:19.074Z,97586.45
2018-10-21T16:20:48.229Z,97586.23
2018-10-21T16:23:17.045Z,97591.31
2018-10-21T16:25:46.962Z,97591.48
2018-10-21T16:28:15.789Z,97591.65
2018-10-21T16:30:45.102Z,97591.09
2018-10-21T16:33:13.917Z,97593.30
2018-10-21T16:35:42.745Z,97591.69
2018-10-21T16:38:11.562Z,97588.82
2018-10-21T16:40:40.466Z,97596.44
2018-10-21T16:43:09.313Z,97597.12
2018-10-21T16:45:38.118Z,97594.19
2018-10-21T16:48:07.319Z,97590.17
2018-10-21T16:50:37.740Z,97603.03
2018-10-21T16:53:05.340Z,97597.15
2018-10-21T16:55:34.153Z,97600.58
2018-10-21T16:58:03.066Z,97603.30
2018-10-21T17:00:32.069Z,97596.82
2018-10-21T17:03:00.773Z,97591.02
2018-10-21T17:05:29.610Z,97593.25
2018-10-21T17:07:58.486Z,97599.08
2018-10-21T17:10:27.708Z,97602.94
2018-10-21T17:12:56.253Z,97603.91
2018-10-21T17:15:25.042Z,97604.45
2018-10-21T17:17:53.910Z,97600.00
2018-10-21T17:20:22.796Z,97605.60
2018-10-21T17:22:51.618Z,97609.41
2018-10-21T17:25:23.309Z,97615.48
2018-10-21T17:27:52.128Z,97606.69
2018-10-21T17:30:21.011Z,97609.66
2018-10-21T17:32:49.815Z,97608.19
2018-10-21T17:35:18.723Z,97611.84
2018-10-21T17:37:47.537Z,97610.98
2018-10-21T17:40:17.417Z,97608.22
2018-10-21T17:42:46.174Z,97606.80
2018-10-21T17:45:15.879Z,97607.63
2018-10-21T17:47:44.776Z,97605.61
2018-10-21T17:50:15.274Z,97606.12
2018-10-21T17:52:45.163Z,97607.77
2018-10-21T17:55:14.667Z,97610.02
2018-10-21T17:57:43.431Z,97608.98
2018-10-21T18:00:13.306Z,97608.06
2018-10-21T18:02:42.203Z,97612.06
2018-10-21T18:05:12.663Z,97613.92
2018-10-21T18:07:42.081Z,97616.73
2018-10-21T18:10:11.838Z,97613.30
2018-10-21T18:12:40.685Z,97613.70
2018-10-21T18:15:10.177Z,97624.06
2018-10-21T18:17:39.794Z,97621.30
2018-10-21T18:20:10.098Z,97616.77
2018-10-21T18:22:39.041Z,97613.53
2018-10-21T18:25:09.139Z,97617.02
2018-10-21T18:27:38.149Z,97617.45
2018-10-21T18:30:08.303Z,97617.28
2018-10-21T18:32:37.166Z,97616.80
2018-10-21T18:35:07.255Z,97616.13
2018-10-21T18:37:36.151Z,97614.44
2018-10-21T18:40:05.512Z,97625.83
2018-10-21T18:42:34.390Z,97623.09
2018-10-21T18:45:03.450Z,97622.00
2018-10-21T18:47:32.372Z,97620.12
2018-10-21T18:50:01.183Z,97621.48
2018-10-21T18:52:29.990Z,97625.06
2018-10-21T18:54:58.958Z,97619.86
2018-10-21T18:57:28.271Z,97616.02
2018-10-21T18:59:57.236Z,97618.52
2018-10-21T19:02:26.199Z,97619.02
2018-10-21T19:04:55.254Z,97620.30
2018-10-21T19:07:25.129Z,97617.73
2018-10-21T19:09:54.496Z,97611.61
2018-10-21T19:12:23.441Z,97617.73
2018-10-21T19:14:52.387Z,97614.27
2018-10-21T19:17:21.263Z,97625.27
2018-10-21T19:19:50.121Z,97620.94
2018-10-21T19:22:19.097Z,97618.34
2018-10-21T19:24:47.969Z,97620.59
2018-10-21T19:27:17.015Z,97628.23
2018-10-21T19:29:46.184Z,97620.64
2018-10-21T19:32:15.443Z,97623.42
2018-10-21T19:34:45.005Z,97619.58
2018-10-21T19:37:15.219Z,97621.20
2018-10-21T19:39:44.408Z,97620.66
2018-10-21T19:42:13.711Z,97615.91
2018-10-21T19:44:42.858Z,97620.23
2018-10-21T19:47:12.331Z,97622.39
2018-10-21T19:49:41.576Z,97624.80
2018-10-21T19:52:11.058Z,97618.03
2018-10-21T19:54:40.306Z,97619.48
2018-10-21T19:57:10.529Z,97609.77
2018-10-21T19:59:39.921Z,97621.56
2018-10-21T20:02:08.804Z,97621.70
2018-10-21T20:04:37.801Z,97622.00
2018-10-21T20:07:07.217Z,97624.41
2018-10-21T20:09:36.441Z,97620.85
2018-10-21T20:12:05.465Z,97622.48
2018-10-21T20:14:35.287Z,97628.61
2018-10-21T20:17:04.125Z,97632.16
2018-10-21T20:19:32.954Z,97628.61
2018-10-21T20:22:01.866Z,97633.80
2018-10-21T20:24:30.781Z,97635.80
2018-10-21T20:26:59.624Z,97636.64
2018-10-21T20:29:28.822Z,97638.92
2018-10-21T20:31:57.787Z,97642.24
2018-10-21T20:34:26.666Z,97637.36
2018-10-21T20:36:55.517Z,97638.19
2018-10-21T20:39:24.346Z,97637.57
2018-10-21T20:41:53.190Z,97641.61
2018-10-21T20:44:22.242Z,97642.24
2018-10-21T20:46:51.124Z,97648.27
2018-10-21T20:49:19.952Z,97647.92
2018-10-21T20:51:48.789Z,97646.69
2018-10-21T20:54:17.679Z,97650.47
2018-10-21T20:56:46.590Z,97655.05
2018-10-21T20:59:15.932Z,97656.19
2018-10-21T21:01:44.866Z,97654.45
2018-10-21T21:04:13.737Z,97653.17
2018-10-21T21:06:42.678Z,97654.94
2018-10-21T21:09:11.529Z,97662.46
2018-10-21T21:11:40.508Z,97658.58
2018-10-21T21:14:09.504Z,97656.13
2018-10-21T21:16:38.352Z,97652.72
2018-10-21T21:19:07.192Z,97656.27
2018-10-21T21:21:36.246Z,97654.28
2018-10-21T21:24:05.352Z,97657.37
2018-10-21T21:26:34.194Z,97658.98
2018-10-21T21:29:03.010Z,97658.36
2018-10-21T21:31:31.885Z,97661.14
2018-10-21T21:34:00.722Z,97657.33
2018-10-21T21:36:29.561Z,97656.05
2018-10-21T21:38:58.380Z,97655.34
2018-10-21T21:41:27.249Z,97658.33
2018-10-21T21:43:56.071Z,97651.60
2018-10-21T21:46:25.009Z,97651.64
2018-10-21T21:48:53.822Z,97647.95
2018-10-21T21:51:22.805Z,97637.86
2018-10-21T21:53:51.698Z,97646.86
2018-10-21T21:56:20.550Z,97636.64
2018-10-21T21:58:50.147Z,97635.11
2018-10-21T22:01:18.975Z,97627.64
2018-10-21T22:03:47.850Z,97632.84
2018-10-21T22:06:16.776Z,97626.65
2018-10-21T22:08:45.986Z,97627.08
2018-10-21T22:11:14.868Z,97631.14
2018-10-21T22:13:43.705Z,97632.75
2018-10-21T22:16:13.113Z,97630.00
2018-10-21T22:18:41.960Z,97628.30
2018-10-21T22:21:10.926Z,97626.31
2018-10-21T22:23:39.769Z,97626.59
2018-10-21T22:26:08.753Z,97632.16
2018-10-21T22:28:37.590Z,97626.39
2018-10-21T22:31:06.458Z,97632.20
2018-10-21T22:33:35.326Z,97637.83
2018-10-21T22:36:04.408Z,97638.87
2018-10-21T22:38:33.199Z,97632.77
2018-10-21T22:41:02.056Z,97629.50
2018-10-21T22:43:30.895Z,97630.08
2018-10-21T22:45:59.799Z,97633.71
2018-10-21T22:48:28.719Z,97629.79
2018-10-21T22:50:57.566Z,97625.95
2018-10-21T22:53:26.447Z,97628.84
2018-10-21T22:55:55.360Z,97623.17
2018-10-21T22:58:24.191Z,97626.58
2018-10-21T23:01:03.416Z,97626.05
2018-10-21T23:03:32.221Z,97620.67
2018-10-21T23:06:01.159Z,97622.83
2018-10-21T23:08:29.922Z,97623.08
2018-10-21T23:10:58.893Z,97619.91
2018-10-21T23:13:27.723Z,97618.73
2018-10-21T23:15:56.575Z,97615.05
2018-10-21T23:18:25.793Z,97619.11
2018-10-21T23:20:54.641Z,97616.83
2018-10-21T23:23:23.493Z,97616.89
2018-10-21T23:25:52.328Z,97613.86
2018-10-21T23:28:21.131Z,97606.61
2018-10-21T23:30:49.946Z,97613.16
2018-10-21T23:33:19.094Z,97610.48
2018-10-21T23:35:47.948Z,97605.17
2018-10-21T23:38:16.782Z,97612.64
2018-10-21T23:40:45.634Z,97609.48
2018-10-21T23:43:14.463Z,97611.55
2018-10-21T23:45:43.279Z,97611.06
2018-10-21T23:48:12.235Z,97607.42
2018-10-21T23:50:41.401Z,97602.63
2018-10-21T23:53:10.231Z,97598.93
2018-10-21T23:55:39.190Z,97602.09
2018-10-21T23:58:08.320Z,97603.44
